sensor_id;sensor_type;location;lat;lon;timestamp;temperature;humidity
27647;DHT22;42229;51.230;6.240;2022-09-03T00:01:58;19.40;43.20
27647;DHT22;42229;51.230;6.240;2022-09-03T00:07:22;19.30;43.10
27647;DHT22;42229;51.230;6.240;2022-09-03T00:09:55;19.30;43.90
27647;DHT22;42229;51.230;6.240;2022-09-03T00:12:27;19.30;43.80
27647;DHT22;42229;51.230;6.240;2022-09-03T00:15:38;19.30;43.50
27647;DHT22;42229;51.230;6.240;2022-09-03T00:23:13;19.20;43.20
27647;DHT22;42229;51.230;6.240;2022-09-03T00:25:45;19.20;43.70
27647;DHT22;42229;51.230;6.240;2022-09-03T00:28:17;19.20;43.60
27647;DHT22;42229;51.230;6.240;2022-09-03T00:30:55;19.10;44.00
27647;DHT22;42229;51.230;6.240;2022-09-03T00:33:28;19.10;43.70
27647;DHT22;42229;51.230;6.240;2022-09-03T00:38:30;19.10;44.40
27647;DHT22;42229;51.230;6.240;2022-09-03T00:43:45;19.00;43.70
27647;DHT22;42229;51.230;6.240;2022-09-03T00:49:21;19.00;45.40
27647;DHT22;42229;51.230;6.240;2022-09-03T00:55:25;19.00;44.10
27647;DHT22;42229;51.230;6.240;2022-09-03T01:01:09;18.90;44.10
27647;DHT22;42229;51.230;6.240;2022-09-03T01:04:15;18.90;44.00
27647;DHT22;42229;51.230;6.240;2022-09-03T01:15:14;18.80;44.70
27647;DHT22;42229;51.230;6.240;2022-09-03T01:20:46;18.80;45.30
27647;DHT22;42229;51.230;6.240;2022-09-03T01:29:02;18.70;45.20
27647;DHT22;42229;51.230;6.240;2022-09-03T01:34:24;18.70;45.60
27647;DHT22;42229;51.230;6.240;2022-09-03T01:48:29;18.60;45.60
27647;DHT22;42229;51.230;6.240;2022-09-03T01:57:06;18.50;45.80
27647;DHT22;42229;51.230;6.240;2022-09-03T01:59:42;18.50;45.80
27647;DHT22;42229;51.230;6.240;2022-09-03T02:02:18;18.50;46.30
27647;DHT22;42229;51.230;6.240;2022-09-03T02:05:01;18.50;46.40
27647;DHT22;42229;51.230;6.240;2022-09-03T02:07:44;18.50;46.30
27647;DHT22;42229;51.230;6.240;2022-09-03T02:10:13;18.50;46.10
27647;DHT22;42229;51.230;6.240;2022-09-03T02:12:43;18.50;46.30
27647;DHT22;42229;51.230;6.240;2022-09-03T02:15:16;18.50;46.00
27647;DHT22;42229;51.230;6.240;2022-09-03T02:17:44;18.50;46.40
27647;DHT22;42229;51.230;6.240;2022-09-03T02:20:15;18.40;46.10
27647;DHT22;42229;51.230;6.240;2022-09-03T02:22:45;18.40;46.30
27647;DHT22;42229;51.230;6.240;2022-09-03T02:25:12;18.50;48.80
27647;DHT22;42229;51.230;6.240;2022-09-03T02:27:39;18.50;46.60
27647;DHT22;42229;51.230;6.240;2022-09-03T02:30:06;18.40;46.30
27647;DHT22;42229;51.230;6.240;2022-09-03T02:32:33;18.40;46.70
27647;DHT22;42229;51.230;6.240;2022-09-03T02:34:59;18.40;46.90
27647;DHT22;42229;51.230;6.240;2022-09-03T02:37:25;18.40;46.40
27647;DHT22;42229;51.230;6.240;2022-09-03T02:39:52;18.40;46.90
27647;DHT22;42229;51.230;6.240;2022-09-03T02:42:18;18.40;47.50
27647;DHT22;42229;51.230;6.240;2022-09-03T02:44:47;18.40;46.50
27647;DHT22;42229;51.230;6.240;2022-09-03T02:47:17;18.40;46.60
27647;DHT22;42229;51.230;6.240;2022-09-03T02:49:48;18.40;46.90
27647;DHT22;42229;51.230;6.240;2022-09-03T02:52:14;18.40;46.60
27647;DHT22;42229;51.230;6.240;2022-09-03T02:54:41;18.40;46.90
27647;DHT22;42229;51.230;6.240;2022-09-03T02:57:13;18.40;47.20
27647;DHT22;42229;51.230;6.240;2022-09-03T02:59:40;18.40;49.00
27647;DHT22;42229;51.230;6.240;2022-09-03T03:02:09;18.40;48.00
27647;DHT22;42229;51.230;6.240;2022-09-03T03:04:36;18.40;47.50
27647;DHT22;42229;51.230;6.240;2022-09-03T03:07:03;18.40;47.40
27647;DHT22;42229;51.230;6.240;2022-09-03T03:09:30;18.30;48.30
27647;DHT22;42229;51.230;6.240;2022-09-03T03:11:56;18.40;49.40
27647;DHT22;42229;51.230;6.240;2022-09-03T03:14:22;18.30;48.10
27647;DHT22;42229;51.230;6.240;2022-09-03T03:16:49;18.40;47.70
27647;DHT22;42229;51.230;6.240;2022-09-03T03:19:16;18.40;48.50
27647;DHT22;42229;51.230;6.240;2022-09-03T03:21:42;18.40;47.80
27647;DHT22;42229;51.230;6.240;2022-09-03T03:24:08;18.30;48.30
27647;DHT22;42229;51.230;6.240;2022-09-03T03:26:35;18.40;48.00
27647;DHT22;42229;51.230;6.240;2022-09-03T03:29:01;18.40;48.60
27647;DHT22;42229;51.230;6.240;2022-09-03T03:31:31;18.40;48.40
27647;DHT22;42229;51.230;6.240;2022-09-03T03:33:59;18.40;48.30
27647;DHT22;42229;51.230;6.240;2022-09-03T03:36:28;18.40;48.10
27647;DHT22;42229;51.230;6.240;2022-09-03T03:38:56;18.40;49.20
27647;DHT22;42229;51.230;6.240;2022-09-03T03:41:24;18.40;48.60
27647;DHT22;42229;51.230;6.240;2022-09-03T03:43:55;18.40;49.10
27647;DHT22;42229;51.230;6.240;2022-09-03T03:46:23;18.40;48.90
27647;DHT22;42229;51.230;6.240;2022-09-03T03:48:50;18.40;49.40
27647;DHT22;42229;51.230;6.240;2022-09-03T03:51:17;18.40;48.80
27647;DHT22;42229;51.230;6.240;2022-09-03T03:53:44;18.40;48.70
27647;DHT22;42229;51.230;6.240;2022-09-03T03:56:11;18.40;48.60
27647;DHT22;42229;51.230;6.240;2022-09-03T03:58:39;18.40;49.10
27647;DHT22;42229;51.230;6.240;2022-09-03T04:01:11;18.40;49.10
27647;DHT22;42229;51.230;6.240;2022-09-03T04:03:39;18.50;49.60
27647;DHT22;42229;51.230;6.240;2022-09-03T04:06:05;18.50;49.10
27647;DHT22;42229;51.230;6.240;2022-09-03T04:08:33;18.50;49.60
27647;DHT22;42229;51.230;6.240;2022-09-03T04:11:05;18.50;49.90
27647;DHT22;42229;51.230;6.240;2022-09-03T04:13:34;18.50;49.50
27647;DHT22;42229;51.230;6.240;2022-09-03T04:16:11;18.50;49.40
27647;DHT22;42229;51.230;6.240;2022-09-03T04:18:39;18.50;49.10
27647;DHT22;42229;51.230;6.240;2022-09-03T04:21:07;18.50;49.10
27647;DHT22;42229;51.230;6.240;2022-09-03T04:23:39;18.50;50.20
27647;DHT22;42229;51.230;6.240;2022-09-03T04:26:07;18.50;50.10
27647;DHT22;42229;51.230;6.240;2022-09-03T04:28:34;18.50;49.70
27647;DHT22;42229;51.230;6.240;2022-09-03T04:31:02;18.50;49.60
27647;DHT22;42229;51.230;6.240;2022-09-03T04:33:32;18.50;49.80
27647;DHT22;42229;51.230;6.240;2022-09-03T04:36:12;18.50;50.10
27647;DHT22;42229;51.230;6.240;2022-09-03T04:38:40;18.50;50.50
27647;DHT22;42229;51.230;6.240;2022-09-03T04:41:08;18.60;50.30
27647;DHT22;42229;51.230;6.240;2022-09-03T04:43:35;18.50;51.40
27647;DHT22;42229;51.230;6.240;2022-09-03T04:46:03;18.60;50.00
27647;DHT22;42229;51.230;6.240;2022-09-03T04:48:31;18.60;50.40
27647;DHT22;42229;51.230;6.240;2022-09-03T04:51:11;18.50;50.60
27647;DHT22;42229;51.230;6.240;2022-09-03T04:53:40;18.50;51.50
27647;DHT22;42229;51.230;6.240;2022-09-03T04:56:15;18.50;50.70
27647;DHT22;42229;51.230;6.240;2022-09-03T04:58:46;18.50;49.80
27647;DHT22;42229;51.230;6.240;2022-09-03T05:01:17;18.50;50.00
27647;DHT22;42229;51.230;6.240;2022-09-03T05:03:45;18.50;50.90
27647;DHT22;42229;51.230;6.240;2022-09-03T05:06:12;18.50;49.90
27647;DHT22;42229;51.230;6.240;2022-09-03T05:08:42;18.50;50.30
27647;DHT22;42229;51.230;6.240;2022-09-03T05:11:15;18.40;50.50
27647;DHT22;42229;51.230;6.240;2022-09-03T05:13:41;18.40;51.30
27647;DHT22;42229;51.230;6.240;2022-09-03T05:16:08;18.50;52.10
27647;DHT22;42229;51.230;6.240;2022-09-03T05:18:35;18.40;52.20
27647;DHT22;42229;51.230;6.240;2022-09-03T05:21:03;18.40;51.80
27647;DHT22;42229;51.230;6.240;2022-09-03T05:23:30;18.40;53.00
27647;DHT22;42229;51.230;6.240;2022-09-03T05:25:57;18.40;50.50
27647;DHT22;42229;51.230;6.240;2022-09-03T05:28:28;18.40;51.60
27647;DHT22;42229;51.230;6.240;2022-09-03T05:31:03;18.50;50.50
27647;DHT22;42229;51.230;6.240;2022-09-03T05:33:34;18.40;50.70
27647;DHT22;42229;51.230;6.240;2022-09-03T05:36:08;18.50;51.50
27647;DHT22;42229;51.230;6.240;2022-09-03T05:38:36;18.50;51.00
27647;DHT22;42229;51.230;6.240;2022-09-03T05:41:04;18.60;51.10
27647;DHT22;42229;51.230;6.240;2022-09-03T05:43:31;18.70;50.90
27647;DHT22;42229;51.230;6.240;2022-09-03T05:46:05;18.70;51.60
27647;DHT22;42229;51.230;6.240;2022-09-03T05:48:34;18.80;51.20
27647;DHT22;42229;51.230;6.240;2022-09-03T05:51:02;18.90;52.50
27647;DHT22;42229;51.230;6.240;2022-09-03T05:53:31;19.00;52.70
27647;DHT22;42229;51.230;6.240;2022-09-03T05:55:58;19.10;52.80
27647;DHT22;42229;51.230;6.240;2022-09-03T05:58:29;19.10;51.60
27647;DHT22;42229;51.230;6.240;2022-09-03T06:00:57;19.20;51.90
27647;DHT22;42229;51.230;6.240;2022-09-03T06:03:23;19.20;51.80
27647;DHT22;42229;51.230;6.240;2022-09-03T06:05:51;19.30;51.90
27647;DHT22;42229;51.230;6.240;2022-09-03T06:08:18;19.30;51.80
27647;DHT22;42229;51.230;6.240;2022-09-03T06:10:44;19.40;52.70
27647;DHT22;42229;51.230;6.240;2022-09-03T06:13:10;19.40;51.80
27647;DHT22;42229;51.230;6.240;2022-09-03T06:15:36;19.40;51.50
27647;DHT22;42229;51.230;6.240;2022-09-03T06:18:03;19.50;51.40
27647;DHT22;42229;51.230;6.240;2022-09-03T06:20:30;19.50;51.60
27647;DHT22;42229;51.230;6.240;2022-09-03T06:22:57;19.50;51.70
27647;DHT22;42229;51.230;6.240;2022-09-03T06:25:23;19.50;52.70
27647;DHT22;42229;51.230;6.240;2022-09-03T06:27:49;19.50;53.10
27647;DHT22;42229;51.230;6.240;2022-09-03T06:30:16;19.50;52.20
27647;DHT22;42229;51.230;6.240;2022-09-03T06:32:45;19.60;52.10
27647;DHT22;42229;51.230;6.240;2022-09-03T06:35:12;19.60;51.80
27647;DHT22;42229;51.230;6.240;2022-09-03T06:37:38;19.60;53.00
27647;DHT22;42229;51.230;6.240;2022-09-03T06:40:05;19.70;51.90
27647;DHT22;42229;51.230;6.240;2022-09-03T06:42:33;19.70;52.10
27647;DHT22;42229;51.230;6.240;2022-09-03T06:45:00;19.80;52.50
27647;DHT22;42229;51.230;6.240;2022-09-03T06:47:27;19.80;52.10
27647;DHT22;42229;51.230;6.240;2022-09-03T06:49:53;19.90;53.20
27647;DHT22;42229;51.230;6.240;2022-09-03T06:52:19;20.00;52.40
27647;DHT22;42229;51.230;6.240;2022-09-03T06:54:45;20.00;53.60
27647;DHT22;42229;51.230;6.240;2022-09-03T06:57:12;20.10;53.10
27647;DHT22;42229;51.230;6.240;2022-09-03T06:59:39;20.20;52.70
27647;DHT22;42229;51.230;6.240;2022-09-03T07:02:05;20.30;53.10
27647;DHT22;42229;51.230;6.240;2022-09-03T07:04:31;20.40;53.40
27647;DHT22;42229;51.230;6.240;2022-09-03T07:06:59;20.50;53.40
27647;DHT22;42229;51.230;6.240;2022-09-03T07:09:25;20.60;52.90
27647;DHT22;42229;51.230;6.240;2022-09-03T07:11:52;20.80;52.90
27647;DHT22;42229;51.230;6.240;2022-09-03T07:14:18;20.80;52.90
27647;DHT22;42229;51.230;6.240;2022-09-03T07:16:46;20.90;52.90
27647;DHT22;42229;51.230;6.240;2022-09-03T07:19:13;21.00;53.10
27647;DHT22;42229;51.230;6.240;2022-09-03T07:21:40;21.10;53.80
27647;DHT22;42229;51.230;6.240;2022-09-03T07:24:07;21.10;54.10
27647;DHT22;42229;51.230;6.240;2022-09-03T07:26:34;21.10;53.00
27647;DHT22;42229;51.230;6.240;2022-09-03T07:29:03;21.20;52.60
27647;DHT22;42229;51.230;6.240;2022-09-03T07:31:31;21.20;52.50
27647;DHT22;42229;51.230;6.240;2022-09-03T07:34:08;21.30;53.70
27647;DHT22;42229;51.230;6.240;2022-09-03T07:36:41;21.40;52.60
27647;DHT22;42229;51.230;6.240;2022-09-03T07:39:10;21.40;52.50
27647;DHT22;42229;51.230;6.240;2022-09-03T07:41:38;21.50;53.50
27647;DHT22;42229;51.230;6.240;2022-09-03T07:44:07;21.50;52.70
27647;DHT22;42229;51.230;6.240;2022-09-03T07:46:34;21.60;53.30
27647;DHT22;42229;51.230;6.240;2022-09-03T07:49:02;21.70;52.90
27647;DHT22;42229;51.230;6.240;2022-09-03T07:51:29;21.80;53.10
27647;DHT22;42229;51.230;6.240;2022-09-03T07:53:57;21.80;52.60
27647;DHT22;42229;51.230;6.240;2022-09-03T07:56:25;21.90;52.60
27647;DHT22;42229;51.230;6.240;2022-09-03T07:58:52;22.00;52.60
27647;DHT22;42229;51.230;6.240;2022-09-03T08:01:20;22.10;53.10
27647;DHT22;42229;51.230;6.240;2022-09-03T08:03:48;22.20;53.10
27647;DHT22;42229;51.230;6.240;2022-09-03T08:06:17;22.20;53.10
27647;DHT22;42229;51.230;6.240;2022-09-03T08:08:44;22.30;53.00
27647;DHT22;42229;51.230;6.240;2022-09-03T08:11:11;22.40;53.10
27647;DHT22;42229;51.230;6.240;2022-09-03T08:13:39;22.50;53.00
27647;DHT22;42229;51.230;6.240;2022-09-03T08:16:08;22.60;53.10
27647;DHT22;42229;51.230;6.240;2022-09-03T08:18:35;22.70;52.80
27647;DHT22;42229;51.230;6.240;2022-09-03T08:21:09;22.80;52.70
27647;DHT22;42229;51.230;6.240;2022-09-03T08:23:39;23.00;52.50
27647;DHT22;42229;51.230;6.240;2022-09-03T08:26:10;23.10;52.60
27647;DHT22;42229;51.230;6.240;2022-09-03T08:28:37;23.20;52.60
27647;DHT22;42229;51.230;6.240;2022-09-03T08:31:04;23.30;52.30
27647;DHT22;42229;51.230;6.240;2022-09-03T08:33:37;23.50;52.20
27647;DHT22;42229;51.230;6.240;2022-09-03T08:36:17;23.60;52.20
27647;DHT22;42229;51.230;6.240;2022-09-03T08:38:47;23.70;52.30
27647;DHT22;42229;51.230;6.240;2022-09-03T08:44:02;23.80;51.50
27647;DHT22;42229;51.230;6.240;2022-09-03T08:49:42;24.00;51.10
27647;DHT22;42229;51.230;6.240;2022-09-03T08:55:42;24.10;51.80
27647;DHT22;42229;51.230;6.240;2022-09-03T08:58:10;24.20;51.80
27647;DHT22;42229;51.230;6.240;2022-09-03T09:03:36;24.30;51.00
27647;DHT22;42229;51.230;6.240;2022-09-03T09:12:19;24.60;51.60
27647;DHT22;42229;51.230;6.240;2022-09-03T09:15:07;24.70;51.20
27647;DHT22;42229;51.230;6.240;2022-09-03T09:22:43;24.90;51.10
27647;DHT22;42229;51.230;6.240;2022-09-03T09:25:13;25.00;51.20
27647;DHT22;42229;51.230;6.240;2022-09-03T09:27:57;25.10;50.80
27647;DHT22;42229;51.230;6.240;2022-09-03T09:30:27;25.10;50.90
27647;DHT22;42229;51.230;6.240;2022-09-03T09:32:54;25.20;51.50
27647;DHT22;42229;51.230;6.240;2022-09-03T09:35:21;25.30;51.40
27647;DHT22;42229;51.230;6.240;2022-09-03T09:37:57;25.40;51.50
27647;DHT22;42229;51.230;6.240;2022-09-03T09:40:29;25.50;51.50
27647;DHT22;42229;51.230;6.240;2022-09-03T09:43:17;25.60;51.20
27647;DHT22;42229;51.230;6.240;2022-09-03T09:45:47;25.70;51.40
27647;DHT22;42229;51.230;6.240;2022-09-03T09:50:48;25.90;51.20
27647;DHT22;42229;51.230;6.240;2022-09-03T09:53:16;26.00;51.20
27647;DHT22;42229;51.230;6.240;2022-09-03T09:55:50;26.00;50.00
27647;DHT22;42229;51.230;6.240;2022-09-03T09:58:24;26.10;51.00
27647;DHT22;42229;51.230;6.240;2022-09-03T10:00:54;26.20;50.40
27647;DHT22;42229;51.230;6.240;2022-09-03T10:03:21;26.20;50.20
27647;DHT22;42229;51.230;6.240;2022-09-03T10:05:56;26.20;50.50
27647;DHT22;42229;51.230;6.240;2022-09-03T10:08:23;26.20;50.70
27647;DHT22;42229;51.230;6.240;2022-09-03T10:10:50;26.20;50.30
27647;DHT22;42229;51.230;6.240;2022-09-03T10:13:29;26.20;50.70
27647;DHT22;42229;51.230;6.240;2022-09-03T10:16:07;26.30;51.00
27647;DHT22;42229;51.230;6.240;2022-09-03T10:21:29;26.40;50.90
27647;DHT22;42229;51.230;6.240;2022-09-03T10:24:16;26.50;51.10
27647;DHT22;42229;51.230;6.240;2022-09-03T10:26:50;26.50;50.80
27647;DHT22;42229;51.230;6.240;2022-09-03T10:29:18;26.60;51.00
27647;DHT22;42229;51.230;6.240;2022-09-03T10:39:36;26.90;51.00
27647;DHT22;42229;51.230;6.240;2022-09-03T10:42:12;27.00;51.10
27647;DHT22;42229;51.230;6.240;2022-09-03T10:47:20;27.30;51.30
27647;DHT22;42229;51.230;6.240;2022-09-03T10:50:14;27.40;50.50
27647;DHT22;42229;51.230;6.240;2022-09-03T10:52:49;27.60;51.00
27647;DHT22;42229;51.230;6.240;2022-09-03T10:55:25;27.70;51.20
27647;DHT22;42229;51.230;6.240;2022-09-03T11:00:32;27.90;50.90
27647;DHT22;42229;51.230;6.240;2022-09-03T11:06:05;28.10;50.70
27647;DHT22;42229;51.230;6.240;2022-09-03T11:08:36;28.30;50.90
27647;DHT22;42229;51.230;6.240;2022-09-03T11:11:14;28.40;50.50
27647;DHT22;42229;51.230;6.240;2022-09-03T11:13:51;28.60;51.00
27647;DHT22;42229;51.230;6.240;2022-09-03T11:16:23;28.80;50.50
27647;DHT22;42229;51.230;6.240;2022-09-03T11:18:53;29.00;49.70
27647;DHT22;42229;51.230;6.240;2022-09-03T11:21:23;29.10;50.70
27647;DHT22;42229;51.230;6.240;2022-09-03T11:23:52;29.40;49.50
27647;DHT22;42229;51.230;6.240;2022-09-03T11:26:26;29.50;50.70
27647;DHT22;42229;51.230;6.240;2022-09-03T11:29:05;29.80;50.10
27647;DHT22;42229;51.230;6.240;2022-09-03T11:34:11;30.20;50.40
27647;DHT22;42229;51.230;6.240;2022-09-03T11:36:39;30.50;49.50
27647;DHT22;42229;51.230;6.240;2022-09-03T11:39:13;30.70;48.60
27647;DHT22;42229;51.230;6.240;2022-09-03T11:41:55;30.90;49.30
27647;DHT22;42229;51.230;6.240;2022-09-03T11:44:35;31.20;49.30
27647;DHT22;42229;51.230;6.240;2022-09-03T11:47:12;31.50;48.50
27647;DHT22;42229;51.230;6.240;2022-09-03T11:49:48;31.80;48.20
27647;DHT22;42229;51.230;6.240;2022-09-03T11:52:25;32.10;48.90
27647;DHT22;42229;51.230;6.240;2022-09-03T11:54:53;32.50;49.60
27647;DHT22;42229;51.230;6.240;2022-09-03T11:57:25;32.80;47.20
27647;DHT22;42229;51.230;6.240;2022-09-03T12:00:15;33.00;49.30
27647;DHT22;42229;51.230;6.240;2022-09-03T12:02:51;33.20;49.50
27647;DHT22;42229;51.230;6.240;2022-09-03T12:05:22;33.60;49.60
27647;DHT22;42229;51.230;6.240;2022-09-03T12:11:38;34.20;47.30
27647;DHT22;42229;51.230;6.240;2022-09-03T12:14:03;34.50;46.60
27647;DHT22;42229;51.230;6.240;2022-09-03T12:19:38;34.90;46.80
27647;DHT22;42229;51.230;6.240;2022-09-03T12:22:06;35.10;44.40
27647;DHT22;42229;51.230;6.240;2022-09-03T12:24:39;35.20;44.80
27647;DHT22;42229;51.230;6.240;2022-09-03T12:27:14;35.40;42.90
27647;DHT22;42229;51.230;6.240;2022-09-03T12:29:49;35.50;44.30
27647;DHT22;42229;51.230;6.240;2022-09-03T12:32:21;35.70;44.10
27647;DHT22;42229;51.230;6.240;2022-09-03T12:34:47;35.90;46.20
27647;DHT22;42229;51.230;6.240;2022-09-03T12:37:21;36.00;42.90
27647;DHT22;42229;51.230;6.240;2022-09-03T12:39:49;36.10;43.00
27647;DHT22;42229;51.230;6.240;2022-09-03T12:42:19;36.20;46.10
27647;DHT22;42229;51.230;6.240;2022-09-03T12:45:06;36.30;43.20
27647;DHT22;42229;51.230;6.240;2022-09-03T12:47:38;36.40;42.50
27647;DHT22;42229;51.230;6.240;2022-09-03T12:50:07;36.50;43.90
27647;DHT22;42229;51.230;6.240;2022-09-03T12:52:44;36.60;43.60
27647;DHT22;42229;51.230;6.240;2022-09-03T12:55:19;36.70;44.00
27647;DHT22;42229;51.230;6.240;2022-09-03T12:58:05;36.90;44.50
27647;DHT22;42229;51.230;6.240;2022-09-03T13:00:46;36.90;42.60
27647;DHT22;42229;51.230;6.240;2022-09-03T13:03:16;37.00;44.10
27647;DHT22;42229;51.230;6.240;2022-09-03T13:05:53;37.00;40.70
27647;DHT22;42229;51.230;6.240;2022-09-03T13:08:21;37.10;42.20
27647;DHT22;42229;51.230;6.240;2022-09-03T13:10:52;37.10;44.10
27647;DHT22;42229;51.230;6.240;2022-09-03T13:21:20;37.50;42.10
27647;DHT22;42229;51.230;6.240;2022-09-03T13:24:00;37.60;41.50
27647;DHT22;42229;51.230;6.240;2022-09-03T13:29:56;37.80;42.30
27647;DHT22;42229;51.230;6.240;2022-09-03T13:32:15;37.90;41.50
27647;DHT22;42229;51.230;6.240;2022-09-03T13:34:54;38.00;40.00
27647;DHT22;42229;51.230;6.240;2022-09-03T13:37:28;38.10;40.90
27647;DHT22;42229;51.230;6.240;2022-09-03T13:40:02;38.20;40.50
27647;DHT22;42229;51.230;6.240;2022-09-03T13:42:41;38.30;42.20
27647;DHT22;42229;51.230;6.240;2022-09-03T13:45:34;38.30;42.30
27647;DHT22;42229;51.230;6.240;2022-09-03T13:51:28;38.20;41.00
27647;DHT22;42229;51.230;6.240;2022-09-03T13:59:18;38.20;40.30
27647;DHT22;42229;51.230;6.240;2022-09-03T14:07:12;38.50;40.10
27647;DHT22;42229;51.230;6.240;2022-09-03T14:12:40;38.30;40.20
27647;DHT22;42229;51.230;6.240;2022-09-03T14:15:16;38.10;41.20
27647;DHT22;42229;51.230;6.240;2022-09-03T14:18:11;38.00;40.20
27647;DHT22;42229;51.230;6.240;2022-09-03T14:21:02;38.00;40.30
27647;DHT22;42229;51.230;6.240;2022-09-03T14:26:18;37.60;41.20
27647;DHT22;42229;51.230;6.240;2022-09-03T14:29:00;37.40;40.00
27647;DHT22;42229;51.230;6.240;2022-09-03T14:40:33;36.90;41.60
27647;DHT22;42229;51.230;6.240;2022-09-03T14:43:10;36.90;40.80
27647;DHT22;42229;51.230;6.240;2022-09-03T14:46:15;36.80;41.00
27647;DHT22;42229;51.230;6.240;2022-09-03T14:48:52;36.80;41.60
27647;DHT22;42229;51.230;6.240;2022-09-03T14:51:33;36.70;40.90
27647;DHT22;42229;51.230;6.240;2022-09-03T14:56:48;36.80;41.70
27647;DHT22;42229;51.230;6.240;2022-09-03T15:07:54;37.10;41.50
27647;DHT22;42229;51.230;6.240;2022-09-03T15:12:57;37.40;42.40
27647;DHT22;42229;51.230;6.240;2022-09-03T15:15:35;37.60;41.50
27647;DHT22;42229;51.230;6.240;2022-09-03T15:20:51;37.80;40.50
27647;DHT22;42229;51.230;6.240;2022-09-03T15:29:11;37.70;40.20
27647;DHT22;42229;51.230;6.240;2022-09-03T15:31:46;37.70;40.30
27647;DHT22;42229;51.230;6.240;2022-09-03T15:34:47;37.60;40.70
27647;DHT22;42229;51.230;6.240;2022-09-03T15:37:41;37.60;40.40
27647;DHT22;42229;51.230;6.240;2022-09-03T15:43:09;37.60;41.10
27647;DHT22;42229;51.230;6.240;2022-09-03T15:48:19;37.70;40.70
27647;DHT22;42229;51.230;6.240;2022-09-03T15:50:53;37.70;40.30
27647;DHT22;42229;51.230;6.240;2022-09-03T15:53:35;37.80;40.30
27647;DHT22;42229;51.230;6.240;2022-09-03T15:59:02;37.90;40.20
27647;DHT22;42229;51.230;6.240;2022-09-03T16:15:35;37.90;39.60
27647;DHT22;42229;51.230;6.240;2022-09-03T16:20:55;37.60;40.20
27647;DHT22;42229;51.230;6.240;2022-09-03T16:23:36;37.50;39.90
27647;DHT22;42229;51.230;6.240;2022-09-03T16:28:48;36.80;40.00
27647;DHT22;42229;51.230;6.240;2022-09-03T16:31:33;36.30;40.00
27647;DHT22;42229;51.230;6.240;2022-09-03T16:36:50;35.40;40.40
27647;DHT22;42229;51.230;6.240;2022-09-03T16:39:39;34.90;40.70
27647;DHT22;42229;51.230;6.240;2022-09-03T16:42:38;34.50;40.60
27647;DHT22;42229;51.230;6.240;2022-09-03T16:51:12;33.40;41.30
27647;DHT22;42229;51.230;6.240;2022-09-03T16:53:54;32.90;41.00
27647;DHT22;42229;51.230;6.240;2022-09-03T17:15:56;32.20;43.20
27647;DHT22;42229;51.230;6.240;2022-09-03T17:18:40;32.40;43.50
27647;DHT22;42229;51.230;6.240;2022-09-03T17:40:38;32.90;42.90
27647;DHT22;42229;51.230;6.240;2022-09-03T17:43:17;32.90;43.30
27647;DHT22;42229;51.230;6.240;2022-09-03T17:46:06;32.80;43.10
27647;DHT22;42229;51.230;6.240;2022-09-03T17:48:59;32.70;42.60
27647;DHT22;42229;51.230;6.240;2022-09-03T17:51:38;32.50;42.70
27647;DHT22;42229;51.230;6.240;2022-09-03T18:01:52;31.40;45.80
27647;DHT22;42229;51.230;6.240;2022-09-03T18:04:37;31.00;45.70
27647;DHT22;42229;51.230;6.240;2022-09-03T18:07:13;30.60;45.30
27647;DHT22;42229;51.230;6.240;2022-09-03T18:10:01;30.10;48.30
27647;DHT22;42229;51.230;6.240;2022-09-03T18:12:53;29.70;46.90
27647;DHT22;42229;51.230;6.240;2022-09-03T18:15:30;29.40;47.90
27647;DHT22;42229;51.230;6.240;2022-09-03T18:18:04;29.00;47.80
27647;DHT22;42229;51.230;6.240;2022-09-03T18:21:09;28.70;48.10
27647;DHT22;42229;51.230;6.240;2022-09-03T18:26:44;28.10;45.70
27647;DHT22;42229;51.230;6.240;2022-09-03T18:29:42;27.80;46.00
27647;DHT22;42229;51.230;6.240;2022-09-03T18:32:30;27.60;47.20
27647;DHT22;42229;51.230;6.240;2022-09-03T18:35:15;27.40;45.00
27647;DHT22;42229;51.230;6.240;2022-09-03T18:38:03;27.20;45.70
27647;DHT22;42229;51.230;6.240;2022-09-03T18:40:52;27.00;45.20
27647;DHT22;42229;51.230;6.240;2022-09-03T18:43:55;26.80;48.60
27647;DHT22;42229;51.230;6.240;2022-09-03T18:47:22;26.70;46.90
27647;DHT22;42229;51.230;6.240;2022-09-03T18:56:24;26.10;45.50
27647;DHT22;42229;51.230;6.240;2022-09-03T19:02:50;25.80;45.80
27647;DHT22;42229;51.230;6.240;2022-09-03T19:17:52;25.20;46.70
27647;DHT22;42229;51.230;6.240;2022-09-03T19:20:44;25.00;46.40
27647;DHT22;42229;51.230;6.240;2022-09-03T19:23:36;25.00;46.60
27647;DHT22;42229;51.230;6.240;2022-09-03T19:29:43;24.80;47.40
27647;DHT22;42229;51.230;6.240;2022-09-03T19:32:41;24.70;49.00
27647;DHT22;42229;51.230;6.240;2022-09-03T19:35:40;24.60;46.50
27647;DHT22;42229;51.230;6.240;2022-09-03T19:38:44;24.50;48.40
27647;DHT22;42229;51.230;6.240;2022-09-03T19:41:41;24.40;47.40
27647;DHT22;42229;51.230;6.240;2022-09-03T19:44:41;24.30;46.70
27647;DHT22;42229;51.230;6.240;2022-09-03T19:47:39;24.20;46.80
27647;DHT22;42229;51.230;6.240;2022-09-03T19:50:28;24.10;49.40
27647;DHT22;42229;51.230;6.240;2022-09-03T19:53:18;24.00;48.10
27647;DHT22;42229;51.230;6.240;2022-09-03T19:56:23;23.90;47.40
27647;DHT22;42229;51.230;6.240;2022-09-03T19:59:20;23.80;47.80
27647;DHT22;42229;51.230;6.240;2022-09-03T20:02:07;23.80;47.40
27647;DHT22;42229;51.230;6.240;2022-09-03T20:04:56;23.70;47.10
27647;DHT22;42229;51.230;6.240;2022-09-03T20:07:43;23.60;49.00
27647;DHT22;42229;51.230;6.240;2022-09-03T20:10:28;23.50;48.20
27647;DHT22;42229;51.230;6.240;2022-09-03T20:15:26;23.40;47.30
27647;DHT22;42229;51.230;6.240;2022-09-03T20:20:43;23.20;48.30
27647;DHT22;42229;51.230;6.240;2022-09-03T20:34:26;22.90;49.30
27647;DHT22;42229;51.230;6.240;2022-09-03T20:42:53;22.70;48.90
27647;DHT22;42229;51.230;6.240;2022-09-03T20:45:36;22.60;49.00
27647;DHT22;42229;51.230;6.240;2022-09-03T20:48:22;22.50;49.80
27647;DHT22;42229;51.230;6.240;2022-09-03T21:02:50;22.20;51.30
27647;DHT22;42229;51.230;6.240;2022-09-03T21:05:26;22.20;51.00
27647;DHT22;42229;51.230;6.240;2022-09-03T21:08:02;22.10;52.90
27647;DHT22;42229;51.230;6.240;2022-09-03T21:10:36;22.10;51.70
27647;DHT22;42229;51.230;6.240;2022-09-03T21:24:21;21.80;54.70
27647;DHT22;42229;51.230;6.240;2022-09-03T21:27:07;21.80;56.40
27647;DHT22;42229;51.230;6.240;2022-09-03T21:29:42;21.70;55.70
27647;DHT22;42229;51.230;6.240;2022-09-03T21:34:55;21.60;53.00
27647;DHT22;42229;51.230;6.240;2022-09-03T21:37:29;21.50;52.50
27647;DHT22;42229;51.230;6.240;2022-09-03T21:39:59;21.50;52.80
27647;DHT22;42229;51.230;6.240;2022-09-03T21:42:36;21.40;54.80
27647;DHT22;42229;51.230;6.240;2022-09-03T21:47:58;21.30;54.10
27647;DHT22;42229;51.230;6.240;2022-09-03T21:50:32;21.30;66.60
27647;DHT22;42229;51.230;6.240;2022-09-03T21:53:19;21.20;56.10